createdAt,value
2017-10-24T00:01:32.830Z,94123.45
2017-10-24T00:04:01.108Z,94122.93
2017-10-24T00:06:28.716Z,94132.73
2017-10-24T00:08:56.333Z,94145.75
2017-10-24T00:11:23.905Z,94154.21
2017-10-24T00:13:51.717Z,94152.94
2017-10-24T00:16:19.332Z,94155.27
2017-10-24T00:18:46.954Z,94153.20
2017-10-24T00:21:14.562Z,94152.31
2017-10-24T00:23:42.181Z,94147.69
2017-10-24T00:26:09.845Z,94155.98
2017-10-24T00:28:37.449Z,94152.48
2017-10-24T00:31:05.085Z,94150.28
2017-10-24T00:33:32.662Z,94146.30
2017-10-24T00:36:00.208Z,94154.18
2017-10-24T00:38:27.866Z,94150.11
2017-10-24T00:40:55.454Z,94148.70
2017-10-24T00:43:23.055Z,94141.45
2017-10-24T00:45:50.660Z,94148.87
2017-10-24T00:48:18.292Z,94141.69
2017-10-24T00:50:45.868Z,94144.67
2017-10-24T00:53:13.472Z,94141.06
2017-10-24T00:55:41.089Z,94131.69
2017-10-24T00:58:08.916Z,94125.28
2017-10-24T01:00:36.551Z,94116.27
2017-10-24T01:03:04.348Z,94107.89
2017-10-24T01:05:31.898Z,94107.88
2017-10-24T01:07:59.573Z,94112.89
2017-10-24T01:10:27.150Z,94111.77
2017-10-24T01:12:54.747Z,94110.86
2017-10-24T01:15:22.496Z,94102.13
2017-10-24T01:17:50.101Z,94091.59
2017-10-24T01:20:17.685Z,94100.06
2017-10-24T01:22:45.400Z,94098.20
2017-10-24T01:25:12.981Z,94102.47
2017-10-24T01:27:41.021Z,94106.34
2017-10-24T01:30:08.762Z,94109.64
2017-10-24T01:32:36.604Z,94109.64
2017-10-24T01:35:04.169Z,94096.58
2017-10-24T01:37:31.856Z,94089.10
2017-10-24T01:39:59.708Z,94088.42
2017-10-24T01:42:27.329Z,94095.77
2017-10-24T01:44:55.248Z,94093.08
2017-10-24T01:47:22.831Z,94086.75
2017-10-24T01:49:50.410Z,94090.03
2017-10-24T01:52:18.129Z,94082.55
2017-10-24T01:54:46.008Z,94073.95
2017-10-24T01:57:13.628Z,94074.48
2017-10-24T01:59:41.280Z,94089.55
2017-10-24T02:02:08.952Z,94094.66
2017-10-24T02:04:36.551Z,94094.44
2017-10-24T02:07:04.123Z,94096.11
2017-10-24T02:09:31.764Z,94087.51
2017-10-24T02:12:00.041Z,94077.17
2017-10-24T02:14:27.640Z,94084.45
2017-10-24T02:16:55.259Z,94072.37
2017-10-24T02:19:22.948Z,94071.58
2017-10-24T02:21:50.565Z,94057.38
2017-10-24T02:24:18.183Z,94056.42
2017-10-24T02:26:45.736Z,94052.52
2017-10-24T02:29:13.315Z,94039.20
2017-10-24T02:31:40.936Z,94029.48
2017-10-24T02:34:08.507Z,94032.41
2017-10-24T02:36:36.405Z,94038.23
2017-10-24T02:39:04.034Z,94039.38
2017-10-24T02:41:31.839Z,94035.68
2017-10-24T02:43:59.418Z,94037.19
2017-10-24T02:46:27.002Z,94030.51
2017-10-24T02:48:54.816Z,94021.45
2017-10-24T02:51:22.462Z,94014.44
2017-10-24T02:53:50.172Z,94008.89
2017-10-24T02:56:17.816Z,94006.23
2017-10-24T02:58:45.499Z,94017.36
2017-10-24T03:01:13.109Z,94011.63
2017-10-24T03:03:40.748Z,94020.85
2017-10-24T03:06:08.597Z,94028.16
2017-10-24T03:08:36.269Z,94025.98
2017-10-24T03:11:04.072Z,94020.44
2017-10-24T03:13:31.689Z,94024.20
2017-10-24T03:15:59.292Z,94031.03
2017-10-24T03:18:26.878Z,94030.21
2017-10-24T03:20:54.509Z,94037.32
2017-10-24T03:23:22.253Z,94036.88
2017-10-24T03:25:50.043Z,94035.42
2017-10-24T03:28:17.703Z,94034.56
2017-10-24T03:30:45.366Z,94041.89
2017-10-24T03:33:12.933Z,94042.30
2017-10-24T03:35:40.503Z,94033.63
2017-10-24T03:38:08.139Z,94037.14
2017-10-24T03:40:36.049Z,94042.45
2017-10-24T03:43:03.679Z,94041.58
2017-10-24T03:45:31.342Z,94043.50
2017-10-24T03:47:58.910Z,94043.34
2017-10-24T03:50:26.475Z,94046.02
2017-10-24T03:52:54.123Z,94040.87
2017-10-24T03:55:21.978Z,94044.31
2017-10-24T03:57:49.544Z,94033.41
2017-10-24T04:00:17.265Z,94026.78
2017-10-24T04:02:44.827Z,94036.55
2017-10-24T04:05:12.693Z,94042.13
2017-10-24T04:07:40.310Z,94043.86
2017-10-24T04:10:07.907Z,94040.91
2017-10-24T04:12:35.503Z,94037.84
2017-10-24T04:15:03.172Z,94041.17
2017-10-24T04:17:30.752Z,94044.83
2017-10-24T04:19:58.531Z,94053.06
2017-10-24T04:22:26.164Z,94061.46
2017-10-24T04:24:53.715Z,94056.64
2017-10-24T04:27:21.269Z,94059.36
2017-10-24T04:29:48.881Z,94066.06
2017-10-24T04:32:16.530Z,94065.27
2017-10-24T04:34:44.124Z,94060.19
2017-10-24T04:37:11.693Z,94063.25
2017-10-24T04:39:39.306Z,94067.53
2017-10-24T04:42:06.877Z,94069.95
2017-10-24T04:44:34.483Z,94073.28
2017-10-24T04:47:02.093Z,94072.76
2017-10-24T04:49:29.684Z,94077.59
2017-10-24T04:51:57.556Z,94080.22
2017-10-24T04:54:25.160Z,94080.30
2017-10-24T04:56:52.725Z,94085.97
2017-10-24T04:59:20.341Z,94099.34
2017-10-24T05:01:47.952Z,94106.08
2017-10-24T05:04:15.505Z,94098.28
2017-10-24T05:06:43.392Z,94099.88
2017-10-24T05:09:11.013Z,94109.37
2017-10-24T05:11:38.920Z,94112.58
2017-10-24T05:14:06.723Z,94113.07
2017-10-24T05:16:34.401Z,94118.20
2017-10-24T05:19:01.984Z,94113.22
2017-10-24T05:21:29.560Z,94119.58
2017-10-24T05:23:57.178Z,94123.51
2017-10-24T05:26:24.808Z,94121.58
2017-10-24T05:28:52.766Z,94125.84
2017-10-24T05:31:20.371Z,94122.27
2017-10-24T05:33:47.930Z,94125.31
2017-10-24T05:36:15.496Z,94130.83
2017-10-24T05:38:43.136Z,94145.52
2017-10-24T05:41:11.074Z,94145.26
2017-10-24T05:43:38.644Z,94149.19
2017-10-24T05:46:06.252Z,94143.78
2017-10-24T05:48:34.061Z,94143.09
2017-10-24T05:51:01.698Z,94136.44
2017-10-24T05:53:29.326Z,94153.78
2017-10-24T05:55:56.936Z,94147.52
2017-10-24T05:58:24.761Z,94137.69
2017-10-24T06:00:52.409Z,94142.17
2017-10-24T06:03:20.345Z,94136.44
2017-10-24T06:05:48.140Z,94148.21
2017-10-24T06:08:15.752Z,94144.47
2017-10-24T06:10:43.395Z,94143.75
2017-10-24T06:13:10.971Z,94143.36
2017-10-24T06:15:38.559Z,94146.34
2017-10-24T06:18:06.106Z,94148.08
2017-10-24T06:20:33.660Z,94153.33
2017-10-24T06:23:01.275Z,94160.41
2017-10-24T06:25:28.850Z,94159.88
2017-10-24T06:27:56.414Z,94156.95
2017-10-24T06:30:24.043Z,94163.52
2017-10-24T06:32:51.915Z,94164.89
2017-10-24T06:35:19.524Z,94171.46
2017-10-24T06:37:47.158Z,94169.16
2017-10-24T06:40:14.761Z,94168.74
2017-10-24T06:42:42.360Z,94167.46
2017-10-24T06:45:09.985Z,94175.47
2017-10-24T06:47:37.557Z,94176.28
2017-10-24T06:50:05.154Z,94176.58
2017-10-24T06:52:32.763Z,94168.76
2017-10-24T06:55:00.330Z,94161.45
2017-10-24T06:57:27.885Z,94172.91
2017-10-24T06:59:55.433Z,94167.39
2017-10-24T07:02:23.025Z,94182.38
2017-10-24T07:04:50.665Z,94174.75
2017-10-24T07:07:18.242Z,94172.61
2017-10-24T07:09:45.871Z,94181.80
2017-10-24T07:12:13.745Z,94174.84
2017-10-24T07:14:41.277Z,94181.47
2017-10-24T07:17:08.889Z,94183.05
2017-10-24T07:19:36.449Z,94185.73
2017-10-24T07:22:03.978Z,94185.14
2017-10-24T07:24:31.553Z,94178.02
2017-10-24T07:26:59.124Z,94186.80
2017-10-24T07:29:26.691Z,94193.47
2017-10-24T07:31:54.276Z,94178.51
2017-10-24T07:34:21.830Z,94195.94
2017-10-24T07:36:49.471Z,94194.59
2017-10-24T07:39:17.018Z,94198.98
2017-10-24T07:41:44.870Z,94191.18
2017-10-24T07:44:12.390Z,94204.59
2017-10-24T07:46:39.964Z,94201.37
2017-10-24T07:49:07.829Z,94197.86
2017-10-24T07:51:35.395Z,94194.53
2017-10-24T07:54:02.985Z,94203.83
2017-10-24T07:56:30.827Z,94210.78
2017-10-24T07:58:58.351Z,94215.78
2017-10-24T08:01:25.930Z,94212.55
2017-10-24T08:03:53.463Z,94219.77
2017-10-24T08:06:20.998Z,94220.49
2017-10-24T08:08:48.838Z,94219.46
2017-10-24T08:11:16.334Z,94218.45
2017-10-24T08:13:44.117Z,94221.02
2017-10-24T08:16:11.674Z,94226.00
2017-10-24T08:18:39.447Z,94226.19
2017-10-24T08:21:07.015Z,94232.34
2017-10-24T08:23:34.601Z,94222.20
2017-10-24T08:26:02.388Z,94229.27
2017-10-24T08:28:29.914Z,94243.06
2017-10-24T08:30:57.859Z,94245.97
2017-10-24T08:33:25.621Z,94241.30
2017-10-24T08:35:53.405Z,94237.89
2017-10-24T08:38:20.977Z,94236.45
2017-10-24T08:40:48.486Z,94241.99
2017-10-24T08:43:16.002Z,94243.02
2017-10-24T08:45:43.825Z,94250.05
2017-10-24T08:48:11.394Z,94251.98
2017-10-24T08:50:38.956Z,94254.80
2017-10-24T08:53:06.528Z,94256.63
2017-10-24T08:55:34.335Z,94252.18
2017-10-24T08:58:01.910Z,94254.69
2017-10-24T09:00:29.654Z,94258.19
2017-10-24T09:02:57.175Z,94257.48
2017-10-24T09:05:24.732Z,94263.33
2017-10-24T09:07:52.339Z,94272.62
2017-10-24T09:13:27.346Z,94288.88
2017-10-24T09:16:07.485Z,94284.19
2017-10-24T09:18:35.075Z,94281.25
2017-10-24T09:24:00.788Z,94286.05
2017-10-24T09:26:44.022Z,94288.24
2017-10-24T09:29:11.668Z,94294.64
2017-10-24T09:31:40.122Z,94292.81
2017-10-24T09:34:07.682Z,94287.98
2017-10-24T09:36:35.245Z,94295.89
2017-10-24T09:39:02.803Z,94310.88
2017-10-24T09:41:30.655Z,94306.06
2017-10-24T09:43:58.406Z,94295.86
2017-10-24T09:46:42.766Z,94295.95
2017-10-24T09:49:10.308Z,94298.32
2017-10-24T09:51:42.866Z,94309.30
2017-10-24T09:54:10.377Z,94322.61
2017-10-24T09:56:43.944Z,94314.08
2017-10-24T09:59:17.856Z,94332.61
2017-10-24T10:01:48.971Z,94329.22
2017-10-24T10:04:16.534Z,94326.12
2017-10-24T10:06:53.031Z,94326.51
2017-10-24T10:09:20.636Z,94317.00
2017-10-24T10:11:48.236Z,94319.48
2017-10-24T10:14:15.857Z,94314.62
2017-10-24T10:16:43.382Z,94325.31
2017-10-24T10:19:10.947Z,94329.44
2017-10-24T10:21:38.533Z,94334.54
2017-10-24T10:24:06.066Z,94339.18
2017-10-24T10:26:33.844Z,94346.05
2017-10-24T10:29:01.448Z,94342.95
2017-10-24T10:31:29.069Z,94320.30
2017-10-24T10:33:57.485Z,94336.67
2017-10-24T10:36:25.010Z,94338.86
2017-10-24T10:38:52.582Z,94339.13
2017-10-24T10:41:20.108Z,94336.92
2017-10-24T10:43:47.624Z,94351.11
2017-10-24T10:46:15.205Z,94348.31
2017-10-24T10:48:42.714Z,94352.66
2017-10-24T10:51:10.498Z,94346.72
2017-10-24T10:53:38.084Z,94343.47
2017-10-24T10:56:05.585Z,94353.47
2017-10-24T10:58:33.355Z,94354.79
2017-10-24T11:01:01.474Z,94351.28
2017-10-24T11:03:29.008Z,94363.19
2017-10-24T11:05:56.555Z,94357.73
2017-10-24T11:08:24.958Z,94365.69
2017-10-24T11:10:52.878Z,94377.34
2017-10-24T11:13:20.835Z,94380.52
2017-10-24T11:15:48.492Z,94387.00
2017-10-24T11:18:16.053Z,94381.41
2017-10-24T11:20:43.590Z,94382.09
2017-10-24T11:23:11.369Z,94378.06
2017-10-24T11:25:38.932Z,94378.51
2017-10-24T11:28:06.468Z,94388.77
2017-10-24T11:30:34.045Z,94389.83
2017-10-24T11:33:01.552Z,94391.33
2017-10-24T11:35:29.081Z,94396.84
2017-10-24T11:37:56.655Z,94401.52
2017-10-24T11:40:24.323Z,94405.66
2017-10-24T11:42:51.891Z,94407.42
2017-10-24T11:45:19.597Z,94407.22
2017-10-24T11:47:47.123Z,94416.90
2017-10-24T11:50:14.625Z,94422.95
2017-10-24T11:52:42.235Z,94427.34
2017-10-24T11:55:09.828Z,94428.39
2017-10-24T11:57:37.713Z,94440.40
2017-10-24T12:00:07.678Z,94436.20
2017-10-24T12:02:35.249Z,94439.45
2017-10-24T12:05:02.771Z,94443.36
2017-10-24T12:07:30.415Z,94442.77
2017-10-24T12:09:58.282Z,94437.29
2017-10-24T12:12:25.839Z,94447.72
2017-10-24T12:14:53.475Z,94447.33
2017-10-24T12:17:20.983Z,94446.17
2017-10-24T12:19:48.509Z,94453.65
2017-10-24T12:22:16.098Z,94460.34
2017-10-24T12:24:43.665Z,94453.88
2017-10-24T12:27:11.562Z,94459.91
2017-10-24T12:29:39.217Z,94460.09
2017-10-24T12:32:06.830Z,94461.89
2017-10-24T12:34:34.342Z,94467.00
2017-10-24T12:37:02.490Z,94457.27
2017-10-24T12:39:30.083Z,94470.73
2017-10-24T12:41:58.052Z,94466.08
2017-10-24T12:44:28.075Z,94463.86
2017-10-24T12:47:10.531Z,94468.91
2017-10-24T12:52:44.466Z,94480.30
2017-10-24T12:55:12.022Z,94482.97
2017-10-24T12:57:57.201Z,94494.06
2017-10-24T13:00:24.789Z,94496.69
2017-10-24T13:02:52.378Z,94494.32
2017-10-24T13:05:20.368Z,94500.17
2017-10-24T13:07:47.921Z,94507.16
2017-10-24T13:10:15.460Z,94511.08
2017-10-24T13:12:43.054Z,94519.45
2017-10-24T13:15:10.610Z,94512.97
2017-10-24T13:17:38.148Z,94517.27
2017-10-24T13:20:05.703Z,94521.61
2017-10-24T13:22:33.311Z,94525.47
2017-10-24T13:25:00.850Z,94530.21
2017-10-24T13:27:29.214Z,94535.13
2017-10-24T13:29:56.790Z,94536.67
2017-10-24T13:32:24.447Z,94543.86
2017-10-24T13:34:51.972Z,94541.36
2017-10-24T13:37:19.771Z,94546.19
2017-10-24T13:39:47.340Z,94548.80
2017-10-24T13:42:14.848Z,94557.38
2017-10-24T13:44:42.373Z,94561.85
2017-10-24T13:47:10.205Z,94567.56
2017-10-24T13:49:37.737Z,94573.16
2017-10-24T13:52:05.251Z,94573.03
2017-10-24T13:54:32.823Z,94574.39
2017-10-24T13:57:00.396Z,94580.20
2017-10-24T13:59:27.911Z,94573.66
2017-10-24T14:01:55.509Z,94581.47
2017-10-24T14:04:28.792Z,94572.39
2017-10-24T14:07:01.998Z,94575.15
2017-10-24T14:09:35.094Z,94578.59
2017-10-24T14:12:02.929Z,94587.67
2017-10-24T14:14:30.478Z,94588.50
2017-10-24T14:16:58.793Z,94590.41
2017-10-24T14:19:26.377Z,94592.36
2017-10-24T14:21:53.921Z,94591.25
2017-10-24T14:24:21.443Z,94595.14
2017-10-24T14:26:49.112Z,94598.48
2017-10-24T14:29:16.627Z,94602.55
2017-10-24T14:31:44.228Z,94606.28
2017-10-24T14:34:11.742Z,94622.20
2017-10-24T14:36:39.695Z,94620.77
2017-10-24T14:39:07.811Z,94617.73
2017-10-24T14:41:35.327Z,94623.70
2017-10-24T14:44:02.840Z,94622.72
2017-10-24T14:46:30.501Z,94619.17
2017-10-24T14:48:58.246Z,94620.06
2017-10-24T14:51:25.814Z,94628.73
2017-10-24T14:53:53.754Z,94634.60
2017-10-24T14:56:21.303Z,94646.25
2017-10-24T14:58:48.833Z,94644.96
2017-10-24T15:01:16.438Z,94645.48
2017-10-24T15:03:43.980Z,94650.09
2017-10-24T15:06:11.543Z,94651.78
2017-10-24T15:08:39.136Z,94658.78
2017-10-24T15:11:06.660Z,94666.89
2017-10-24T15:13:34.271Z,94677.03
2017-10-24T15:16:01.920Z,94683.21
2017-10-24T15:18:29.708Z,94687.77
2017-10-24T15:20:57.248Z,94693.07
2017-10-24T15:23:24.854Z,94700.77
2017-10-24T15:25:52.402Z,94702.45
2017-10-24T15:28:19.955Z,94704.73
2017-10-24T15:30:47.538Z,94705.88
2017-10-24T15:33:15.066Z,94713.38
2017-10-24T15:35:42.579Z,94717.45
2017-10-24T15:38:10.121Z,94734.42
2017-10-24T15:40:37.645Z,94740.81
2017-10-24T15:43:05.427Z,94755.59
2017-10-24T15:45:32.977Z,94762.02
2017-10-24T15:48:00.483Z,94770.36
2017-10-24T15:50:29.257Z,94770.22
2017-10-24T15:52:56.841Z,94767.27
2017-10-24T15:55:24.392Z,94780.90
2017-10-24T15:57:52.053Z,94780.27
2017-10-24T16:00:19.852Z,94787.56
2017-10-24T16:02:47.394Z,94798.59
2017-10-24T16:05:14.978Z,94804.70
2017-10-24T16:07:42.606Z,94803.99
2017-10-24T16:10:10.231Z,94813.19
2017-10-24T16:12:38.338Z,94807.92
2017-10-24T16:15:05.902Z,94818.19
2017-10-24T16:17:33.437Z,94819.69
2017-10-24T16:20:01.661Z,94821.83
2017-10-24T16:22:29.299Z,94834.82
2017-10-24T16:24:56.827Z,94834.14
2017-10-24T16:27:24.358Z,94838.48
2017-10-24T16:29:51.926Z,94841.39
2017-10-24T16:32:19.490Z,94848.41
2017-10-24T16:34:47.064Z,94858.27
2017-10-24T16:37:14.632Z,94857.70
2017-10-24T16:39:42.286Z,94856.70
2017-10-24T16:42:09.854Z,94862.94
2017-10-24T16:44:37.933Z,94864.19
2017-10-24T16:47:05.486Z,94868.48
2017-10-24T16:49:33.058Z,94874.50
2017-10-24T16:52:00.866Z,94873.83
2017-10-24T16:54:28.504Z,94872.59
2017-10-24T16:56:56.056Z,94874.19
2017-10-24T16:59:23.663Z,94891.63
2017-10-24T17:01:51.295Z,94895.81
2017-10-24T17:04:19.154Z,94896.80
2017-10-24T17:06:46.742Z,94902.03
2017-10-24T17:09:15.105Z,94909.70
2017-10-24T17:11:42.629Z,94914.38
2017-10-24T17:14:10.429Z,94921.08
2017-10-24T17:16:37.990Z,94930.52
2017-10-24T17:19:05.625Z,94941.02
2017-10-24T17:21:33.175Z,94936.78
2017-10-24T17:24:00.889Z,94937.11
2017-10-24T17:26:28.730Z,94942.09
2017-10-24T17:28:56.608Z,94945.78
2017-10-24T17:31:24.232Z,94945.36
2017-10-24T17:33:51.813Z,94954.70
2017-10-24T17:36:19.398Z,94954.58
2017-10-24T17:38:46.998Z,94953.13
2017-10-24T17:41:14.596Z,94955.50
2017-10-24T17:43:42.228Z,94952.84
2017-10-24T17:46:10.187Z,94957.16
2017-10-24T17:48:38.056Z,94968.76
2017-10-24T17:51:05.914Z,94970.22
2017-10-24T17:53:33.506Z,94974.44
2017-10-24T17:56:01.465Z,94976.31
2017-10-24T17:58:29.835Z,94979.33
2017-10-24T18:00:57.435Z,94985.03
2017-10-24T18:03:24.997Z,94988.36
2017-10-24T18:05:52.538Z,94994.18
2017-10-24T18:08:20.094Z,95001.41
2017-10-24T18:10:47.693Z,94998.83
2017-10-24T18:13:16.127Z,94999.73
2017-10-24T18:15:43.683Z,95007.52
2017-10-24T18:18:11.218Z,95007.83
2017-10-24T18:20:38.802Z,95021.20
2017-10-24T18:23:07.081Z,95026.51
2017-10-24T18:25:34.714Z,95023.47
2017-10-24T18:28:02.294Z,95030.05
2017-10-24T18:30:30.155Z,95032.69
2017-10-24T18:32:57.871Z,95042.91
2017-10-24T18:35:25.667Z,95046.66
2017-10-24T18:37:53.251Z,95054.09
2017-10-24T18:40:20.845Z,95049.59
2017-10-24T18:42:48.763Z,95065.13
2017-10-24T18:45:16.342Z,95059.47
2017-10-24T18:47:43.882Z,95056.17
2017-10-24T18:50:11.643Z,95058.19
2017-10-24T18:52:40.748Z,95063.33
2017-10-24T18:55:08.476Z,95073.50
2017-10-24T18:57:36.055Z,95073.45
2017-10-24T19:00:06.004Z,95080.34
2017-10-24T19:02:34.423Z,95078.91
2017-10-24T19:05:01.978Z,95084.41
2017-10-24T19:07:30.324Z,95080.94
2017-10-24T19:09:58.108Z,95085.20
2017-10-24T19:12:25.797Z,95093.61
2017-10-24T19:14:54.240Z,95097.62
2017-10-24T19:17:22.139Z,95096.17
2017-10-24T19:19:49.703Z,95105.95
2017-10-24T19:22:17.338Z,95105.27
2017-10-24T19:24:45.081Z,95105.38
2017-10-24T19:27:13.059Z,95111.77
2017-10-24T19:29:41.125Z,95106.09
2017-10-24T19:32:08.875Z,95115.84
2017-10-24T19:34:36.455Z,95110.98
2017-10-24T19:37:04.195Z,95121.21
2017-10-24T19:39:31.841Z,95131.45
2017-10-24T19:41:59.636Z,95134.80
2017-10-24T19:44:27.402Z,95141.84
2017-10-24T19:46:55.011Z,95149.63
2017-10-24T19:49:22.669Z,95153.80
2017-10-24T19:51:50.215Z,95159.38
2017-10-24T19:54:17.824Z,95152.52
2017-10-24T19:56:45.390Z,95154.06
2017-10-24T19:59:13.087Z,95152.33
2017-10-24T20:01:40.661Z,95165.70
2017-10-24T20:04:08.217Z,95153.96
2017-10-24T20:06:35.734Z,95155.14
2017-10-24T20:09:03.419Z,95154.22
2017-10-24T20:11:31.005Z,95156.75
2017-10-24T20:13:58.579Z,95173.60
2017-10-24T20:16:26.834Z,95183.06
2017-10-24T20:18:54.671Z,95184.48
2017-10-24T20:21:22.938Z,95184.37
2017-10-24T20:23:50.566Z,95184.94
2017-10-24T20:26:18.083Z,95185.28
2017-10-24T20:28:45.630Z,95195.91
2017-10-24T20:31:13.182Z,95193.09
2017-10-24T20:33:40.737Z,95195.78
2017-10-24T20:36:08.257Z,95189.08
2017-10-24T20:38:35.825Z,95194.44
2017-10-24T20:41:03.578Z,95196.70
2017-10-24T20:43:31.124Z,95199.91
2017-10-24T20:45:58.713Z,95199.17
2017-10-24T20:48:26.546Z,95192.41
2017-10-24T20:50:54.122Z,95195.11
2017-10-24T20:53:21.717Z,95199.40
2017-10-24T20:55:49.311Z,95209.33
2017-10-24T20:58:17.192Z,95209.02
2017-10-24T21:00:44.814Z,95215.59
2017-10-24T21:03:12.407Z,95213.78
2017-10-24T21:05:40.203Z,95207.31
2017-10-24T21:08:07.786Z,95214.57
2017-10-24T21:10:35.310Z,95224.20
2017-10-24T21:13:03.063Z,95206.09
2017-10-24T21:15:30.650Z,95235.58
2017-10-24T21:17:58.395Z,95237.37
2017-10-24T21:20:26.012Z,95244.16
2017-10-24T21:22:53.642Z,95247.11
2017-10-24T21:25:21.218Z,95253.38
2017-10-24T21:27:48.876Z,95257.92
2017-10-24T21:30:16.603Z,95265.97
2017-10-24T21:32:44.389Z,95263.62
2017-10-24T21:35:11.929Z,95259.77
2017-10-24T21:37:39.534Z,95257.10
2017-10-24T21:40:07.121Z,95258.44
2017-10-24T21:42:34.711Z,95267.98
2017-10-24T21:45:02.314Z,95265.93
2017-10-24T21:47:29.862Z,95260.03
2017-10-24T21:49:57.401Z,95263.94
2017-10-24T21:52:24.999Z,95252.93
2017-10-24T21:54:52.612Z,95258.95
2017-10-24T21:57:20.418Z,95257.79
2017-10-24T21:59:48.018Z,95261.69
2017-10-24T22:02:15.656Z,95264.59
2017-10-24T22:04:43.166Z,95268.03
2017-10-24T22:07:10.744Z,95273.02
2017-10-24T22:09:38.359Z,95279.97
2017-10-24T22:12:05.941Z,95278.72
2017-10-24T22:14:33.798Z,95287.91
2017-10-24T22:17:01.386Z,95286.60
2017-10-24T22:19:29.005Z,95305.00
2017-10-24T22:21:56.599Z,95298.55
2017-10-24T22:24:24.193Z,95300.94
2017-10-24T22:26:51.921Z,95321.13
2017-10-24T22:29:19.453Z,95317.44
2017-10-24T22:31:47.022Z,95321.19
2017-10-24T22:34:14.559Z,95324.52
2017-10-24T22:36:42.164Z,95321.22
2017-10-24T22:39:09.731Z,95321.03
2017-10-24T22:41:38.158Z,95330.13
2017-10-24T22:44:05.892Z,95334.22
2017-10-24T22:46:33.510Z,95335.36
2017-10-24T22:49:01.112Z,95327.22
2017-10-24T22:51:28.747Z,95328.05
2017-10-24T22:53:56.947Z,95334.77
2017-10-24T22:56:24.537Z,95330.45
2017-10-24T22:58:52.110Z,95327.83
2017-10-24T23:01:19.707Z,95329.77
2017-10-24T23:03:47.466Z,95336.03
2017-10-24T23:06:15.266Z,95339.81
2017-10-24T23:08:42.845Z,95349.41
2017-10-24T23:11:10.574Z,95358.28
2017-10-24T23:13:38.122Z,95357.28
2017-10-24T23:16:05.733Z,95366.27
2017-10-24T23:18:33.310Z,95368.77
2017-10-24T23:21:01.045Z,95375.24
2017-10-24T23:23:28.651Z,95381.48
2017-10-24T23:25:56.214Z,95392.45
2017-10-24T23:28:23.957Z,95388.53
2017-10-24T23:30:51.571Z,95381.80
2017-10-24T23:33:19.339Z,95395.61
2017-10-24T23:35:46.923Z,95397.26
2017-10-24T23:38:14.498Z,95406.73
2017-10-24T23:40:42.075Z,95404.83
2017-10-24T23:43:09.995Z,95412.25
2017-10-24T23:45:37.582Z,95418.25
2017-10-24T23:48:05.125Z,95421.61
2017-10-24T23:50:32.646Z,95415.55
2017-10-24T23:53:00.264Z,95435.00
2017-10-24T23:55:27.818Z,95426.77
2017-10-24T23:57:55.430Z,95437.67
